sensor_id;sensor_type;location;lat;lon;timestamp;P1;durP1;ratioP1;P2;durP2;ratioP2
47053;SDS011;32811;52.382;5.270;2023-11-22T00:00:07;9.23;;;6.00;;
47053;SDS011;32811;52.382;5.270;2023-11-22T00:02:37;10.98;;;6.53;;
47053;SDS011;32811;52.382;5.270;2023-11-22T00:05:04;7.20;;;5.65;;
47053;SDS011;32811;52.382;5.270;2023-11-22T00:07:32;9.07;;;5.45;;
47053;SDS011;32811;52.382;5.270;2023-11-22T00:10:02;8.48;;;6.63;;
47053;SDS011;32811;52.382;5.270;2023-11-22T00:12:30;7.30;;;6.60;;
47053;SDS011;32811;52.382;5.270;2023-11-22T00:15:06;9.40;;;6.30;;
47053;SDS011;32811;52.382;5.270;2023-11-22T00:17:34;8.27;;;5.80;;
47053;SDS011;32811;52.382;5.270;2023-11-22T00:20:01;8.18;;;6.30;;
47053;SDS011;32811;52.382;5.270;2023-11-22T00:22:32;10.43;;;4.97;;
47053;SDS011;32811;52.382;5.270;2023-11-22T00:24:59;6.47;;;5.20;;
47053;SDS011;32811;52.382;5.270;2023-11-22T00:27:28;8.70;;;6.13;;
47053;SDS011;32811;52.382;5.270;2023-11-22T00:29:56;6.43;;;5.30;;
47053;SDS011;32811;52.382;5.270;2023-11-22T00:32:23;9.15;;;5.90;;
47053;SDS011;32811;52.382;5.270;2023-11-22T00:34:50;6.93;;;5.80;;
47053;SDS011;32811;52.382;5.270;2023-11-22T00:37:18;8.63;;;5.65;;
47053;SDS011;32811;52.382;5.270;2023-11-22T00:39:44;6.70;;;5.50;;
47053;SDS011;32811;52.382;5.270;2023-11-22T00:42:11;8.25;;;5.53;;
47053;SDS011;32811;52.382;5.270;2023-11-22T00:44:38;9.73;;;5.55;;
47053;SDS011;32811;52.382;5.270;2023-11-22T00:47:04;6.80;;;5.72;;
47053;SDS011;32811;52.382;5.270;2023-11-22T00:49:31;8.23;;;6.65;;
47053;SDS011;32811;52.382;5.270;2023-11-22T00:51:58;6.90;;;5.38;;
47053;SDS011;32811;52.382;5.270;2023-11-22T00:54:27;6.30;;;5.28;;
47053;SDS011;32811;52.382;5.270;2023-11-22T00:56:54;7.20;;;5.63;;
47053;SDS011;32811;52.382;5.270;2023-11-22T00:59:21;8.38;;;6.53;;
47053;SDS011;32811;52.382;5.270;2023-11-22T01:01:47;8.23;;;5.95;;
47053;SDS011;32811;52.382;5.270;2023-11-22T01:04:14;6.80;;;6.07;;
47053;SDS011;32811;52.382;5.270;2023-11-22T01:06:41;6.28;;;5.68;;
47053;SDS011;32811;52.382;5.270;2023-11-22T01:09:08;5.70;;;4.88;;
47053;SDS011;32811;52.382;5.270;2023-11-22T01:11:40;7.85;;;5.88;;
47053;SDS011;32811;52.382;5.270;2023-11-22T01:14:06;7.68;;;5.15;;
47053;SDS011;32811;52.382;5.270;2023-11-22T01:16:33;6.47;;;5.30;;
47053;SDS011;32811;52.382;5.270;2023-11-22T01:19:00;5.47;;;4.85;;
47053;SDS011;32811;52.382;5.270;2023-11-22T01:21:27;6.80;;;5.88;;
47053;SDS011;32811;52.382;5.270;2023-11-22T01:23:57;7.13;;;5.53;;
47053;SDS011;32811;52.382;5.270;2023-11-22T01:26:24;6.15;;;4.90;;
47053;SDS011;32811;52.382;5.270;2023-11-22T01:28:51;6.97;;;5.32;;
47053;SDS011;32811;52.382;5.270;2023-11-22T01:31:18;5.80;;;5.20;;
47053;SDS011;32811;52.382;5.270;2023-11-22T01:33:47;7.97;;;5.10;;
47053;SDS011;32811;52.382;5.270;2023-11-22T01:36:14;9.80;;;6.10;;
47053;SDS011;32811;52.382;5.270;2023-11-22T01:38:41;5.70;;;4.70;;
47053;SDS011;32811;52.382;5.270;2023-11-22T01:41:10;8.52;;;5.60;;
47053;SDS011;32811;52.382;5.270;2023-11-22T01:43:39;7.63;;;5.22;;
47053;SDS011;32811;52.382;5.270;2023-11-22T01:46:08;6.30;;;5.13;;
47053;SDS011;32811;52.382;5.270;2023-11-22T01:48:36;5.97;;;5.28;;
47053;SDS011;32811;52.382;5.270;2023-11-22T01:51:03;5.70;;;5.10;;
47053;SDS011;32811;52.382;5.270;2023-11-22T01:53:30;7.18;;;5.30;;
47053;SDS011;32811;52.382;5.270;2023-11-22T01:55:58;6.07;;;4.65;;
47053;SDS011;32811;52.382;5.270;2023-11-22T01:58:25;6.68;;;5.00;;
47053;SDS011;32811;52.382;5.270;2023-11-22T02:00:53;6.15;;;5.55;;
47053;SDS011;32811;52.382;5.270;2023-11-22T02:03:21;9.52;;;5.80;;
47053;SDS011;32811;52.382;5.270;2023-11-22T02:05:48;8.10;;;5.20;;
47053;SDS011;32811;52.382;5.270;2023-11-22T02:08:16;7.32;;;5.45;;
47053;SDS011;32811;52.382;5.270;2023-11-22T02:10:45;8.95;;;5.65;;
47053;SDS011;32811;52.382;5.270;2023-11-22T02:13:15;4.93;;;4.43;;
47053;SDS011;32811;52.382;5.270;2023-11-22T02:15:42;5.68;;;5.15;;
47053;SDS011;32811;52.382;5.270;2023-11-22T02:18:09;11.15;;;5.75;;
47053;SDS011;32811;52.382;5.270;2023-11-22T02:20:39;7.22;;;5.30;;
47053;SDS011;32811;52.382;5.270;2023-11-22T02:23:08;7.38;;;5.13;;
47053;SDS011;32811;52.382;5.270;2023-11-22T02:25:35;7.45;;;5.80;;
47053;SDS011;32811;52.382;5.270;2023-11-22T02:28:02;6.15;;;5.22;;
47053;SDS011;32811;52.382;5.270;2023-11-22T02:30:29;7.03;;;5.90;;
47053;SDS011;32811;52.382;5.270;2023-11-22T02:32:55;7.25;;;5.75;;
47053;SDS011;32811;52.382;5.270;2023-11-22T02:35:22;8.23;;;6.18;;
47053;SDS011;32811;52.382;5.270;2023-11-22T02:37:50;7.65;;;5.25;;
47053;SDS011;32811;52.382;5.270;2023-11-22T02:40:17;8.10;;;5.70;;
47053;SDS011;32811;52.382;5.270;2023-11-22T02:42:48;9.43;;;7.10;;
47053;SDS011;32811;52.382;5.270;2023-11-22T02:45:15;8.27;;;6.65;;
47053;SDS011;32811;52.382;5.270;2023-11-22T02:47:44;10.10;;;6.28;;
47053;SDS011;32811;52.382;5.270;2023-11-22T02:50:12;8.63;;;5.28;;
47053;SDS011;32811;52.382;5.270;2023-11-22T02:52:40;7.10;;;6.38;;
47053;SDS011;32811;52.382;5.270;2023-11-22T02:55:08;9.07;;;6.18;;
47053;SDS011;32811;52.382;5.270;2023-11-22T02:57:36;7.97;;;6.43;;
47053;SDS011;32811;52.382;5.270;2023-11-22T03:00:07;7.63;;;5.85;;
47053;SDS011;32811;52.382;5.270;2023-11-22T03:02:41;5.47;;;4.25;;
47053;SDS011;32811;52.382;5.270;2023-11-22T03:05:08;7.93;;;5.93;;
47053;SDS011;32811;52.382;5.270;2023-11-22T03:07:39;8.82;;;7.03;;
47053;SDS011;32811;52.382;5.270;2023-11-22T03:10:07;8.45;;;6.28;;
47053;SDS011;32811;52.382;5.270;2023-11-22T03:12:34;7.35;;;6.20;;
47053;SDS011;32811;52.382;5.270;2023-11-22T03:15:01;7.80;;;6.10;;
47053;SDS011;32811;52.382;5.270;2023-11-22T03:17:28;8.10;;;6.30;;
47053;SDS011;32811;52.382;5.270;2023-11-22T03:19:56;8.88;;;5.97;;
47053;SDS011;32811;52.382;5.270;2023-11-22T03:22:24;7.13;;;6.43;;
47053;SDS011;32811;52.382;5.270;2023-11-22T03:24:51;7.53;;;6.30;;
47053;SDS011;32811;52.382;5.270;2023-11-22T03:27:19;9.00;;;8.05;;
47053;SDS011;32811;52.382;5.270;2023-11-22T03:29:47;7.95;;;6.22;;
47053;SDS011;32811;52.382;5.270;2023-11-22T03:32:14;9.40;;;6.03;;
47053;SDS011;32811;52.382;5.270;2023-11-22T03:34:41;9.38;;;6.57;;
47053;SDS011;32811;52.382;5.270;2023-11-22T03:37:07;8.90;;;6.32;;
47053;SDS011;32811;52.382;5.270;2023-11-22T03:39:34;8.40;;;6.63;;
47053;SDS011;32811;52.382;5.270;2023-11-22T03:42:03;9.43;;;7.13;;
47053;SDS011;32811;52.382;5.270;2023-11-22T03:44:31;8.52;;;5.97;;
47053;SDS011;32811;52.382;5.270;2023-11-22T03:46:58;8.25;;;5.70;;
47053;SDS011;32811;52.382;5.270;2023-11-22T03:49:25;9.85;;;5.97;;
47053;SDS011;32811;52.382;5.270;2023-11-22T03:51:51;10.32;;;6.43;;
47053;SDS011;32811;52.382;5.270;2023-11-22T03:54:18;7.75;;;6.63;;
47053;SDS011;32811;52.382;5.270;2023-11-22T03:56:45;10.40;;;7.20;;
47053;SDS011;32811;52.382;5.270;2023-11-22T03:59:13;10.65;;;6.57;;
47053;SDS011;32811;52.382;5.270;2023-11-22T04:01:39;8.15;;;7.35;;
47053;SDS011;32811;52.382;5.270;2023-11-22T04:04:06;8.98;;;6.68;;
47053;SDS011;32811;52.382;5.270;2023-11-22T04:06:36;9.15;;;6.63;;
47053;SDS011;32811;52.382;5.270;2023-11-22T04:09:02;11.57;;;7.20;;
47053;SDS011;32811;52.382;5.270;2023-11-22T04:11:29;7.68;;;6.82;;
47053;SDS011;32811;52.382;5.270;2023-11-22T04:13:56;9.95;;;6.45;;
47053;SDS011;32811;52.382;5.270;2023-11-22T04:16:23;8.90;;;7.00;;
47053;SDS011;32811;52.382;5.270;2023-11-22T04:18:50;7.82;;;6.68;;
47053;SDS011;32811;52.382;5.270;2023-11-22T04:21:17;8.88;;;7.35;;
47053;SDS011;32811;52.382;5.270;2023-11-22T04:23:45;8.05;;;6.68;;
47053;SDS011;32811;52.382;5.270;2023-11-22T04:26:12;9.98;;;6.97;;
47053;SDS011;32811;52.382;5.270;2023-11-22T04:28:41;8.20;;;6.68;;
47053;SDS011;32811;52.382;5.270;2023-11-22T04:31:08;7.95;;;6.60;;
47053;SDS011;32811;52.382;5.270;2023-11-22T04:33:35;9.20;;;7.95;;
47053;SDS011;32811;52.382;5.270;2023-11-22T04:36:02;10.40;;;7.18;;
47053;SDS011;32811;52.382;5.270;2023-11-22T04:38:33;11.88;;;7.80;;
47053;SDS011;32811;52.382;5.270;2023-11-22T04:41:03;9.35;;;7.32;;
47053;SDS011;32811;52.382;5.270;2023-11-22T04:43:30;9.73;;;6.38;;
47053;SDS011;32811;52.382;5.270;2023-11-22T04:45:56;9.73;;;7.50;;
47053;SDS011;32811;52.382;5.270;2023-11-22T04:48:24;9.10;;;7.22;;
47053;SDS011;32811;52.382;5.270;2023-11-22T04:50:51;10.77;;;7.32;;
47053;SDS011;32811;52.382;5.270;2023-11-22T04:53:18;13.48;;;6.88;;
47053;SDS011;32811;52.382;5.270;2023-11-22T04:55:45;9.93;;;7.05;;
47053;SDS011;32811;52.382;5.270;2023-11-22T04:58:12;10.45;;;7.28;;
47053;SDS011;32811;52.382;5.270;2023-11-22T05:00:40;13.35;;;8.40;;
47053;SDS011;32811;52.382;5.270;2023-11-22T05:03:11;10.40;;;7.28;;
47053;SDS011;32811;52.382;5.270;2023-11-22T05:05:39;11.20;;;7.15;;
47053;SDS011;32811;52.382;5.270;2023-11-22T05:08:06;11.00;;;7.47;;
47053;SDS011;32811;52.382;5.270;2023-11-22T05:10:32;11.02;;;7.35;;
47053;SDS011;32811;52.382;5.270;2023-11-22T05:12:59;9.02;;;6.53;;
47053;SDS011;32811;52.382;5.270;2023-11-22T05:15:26;12.43;;;7.75;;
47053;SDS011;32811;52.382;5.270;2023-11-22T05:17:54;11.15;;;7.47;;
47053;SDS011;32811;52.382;5.270;2023-11-22T05:20:20;10.80;;;6.85;;
47053;SDS011;32811;52.382;5.270;2023-11-22T05:22:47;7.25;;;6.40;;
47053;SDS011;32811;52.382;5.270;2023-11-22T05:25:14;10.63;;;6.70;;
47053;SDS011;32811;52.382;5.270;2023-11-22T05:27:40;9.52;;;6.28;;
47053;SDS011;32811;52.382;5.270;2023-11-22T05:30:07;12.80;;;8.32;;
47053;SDS011;32811;52.382;5.270;2023-11-22T05:32:35;10.93;;;7.45;;
47053;SDS011;32811;52.382;5.270;2023-11-22T05:35:02;9.52;;;6.20;;
47053;SDS011;32811;52.382;5.270;2023-11-22T05:37:32;9.60;;;6.63;;
47053;SDS011;32811;52.382;5.270;2023-11-22T05:39:58;10.52;;;8.63;;
47053;SDS011;32811;52.382;5.270;2023-11-22T05:42:25;10.70;;;7.72;;
47053;SDS011;32811;52.382;5.270;2023-11-22T05:44:52;11.85;;;7.13;;
47053;SDS011;32811;52.382;5.270;2023-11-22T05:47:18;9.27;;;7.25;;
47053;SDS011;32811;52.382;5.270;2023-11-22T05:49:45;9.68;;;7.35;;
47053;SDS011;32811;52.382;5.270;2023-11-22T05:52:12;9.43;;;7.03;;
47053;SDS011;32811;52.382;5.270;2023-11-22T05:54:39;12.15;;;7.80;;
47053;SDS011;32811;52.382;5.270;2023-11-22T05:57:06;9.85;;;6.30;;
47053;SDS011;32811;52.382;5.270;2023-11-22T05:59:33;14.60;;;8.10;;
47053;SDS011;32811;52.382;5.270;2023-11-22T06:02:00;11.40;;;7.82;;
47053;SDS011;32811;52.382;5.270;2023-11-22T06:04:26;10.50;;;7.70;;
47053;SDS011;32811;52.382;5.270;2023-11-22T06:06:53;7.35;;;6.18;;
47053;SDS011;32811;52.382;5.270;2023-11-22T06:09:20;11.25;;;7.32;;
47053;SDS011;32811;52.382;5.270;2023-11-22T06:11:46;11.60;;;7.57;;
47053;SDS011;32811;52.382;5.270;2023-11-22T06:14:14;11.00;;;5.80;;
47053;SDS011;32811;52.382;5.270;2023-11-22T06:16:41;9.38;;;7.05;;
47053;SDS011;32811;52.382;5.270;2023-11-22T06:19:07;7.95;;;6.65;;
47053;SDS011;32811;52.382;5.270;2023-11-22T06:21:34;10.57;;;7.53;;
47053;SDS011;32811;52.382;5.270;2023-11-22T06:24:02;7.68;;;6.43;;
47053;SDS011;32811;52.382;5.270;2023-11-22T06:26:30;11.10;;;7.15;;
47053;SDS011;32811;52.382;5.270;2023-11-22T06:28:56;9.45;;;7.25;;
47053;SDS011;32811;52.382;5.270;2023-11-22T06:31:23;10.40;;;7.30;;
47053;SDS011;32811;52.382;5.270;2023-11-22T06:33:50;11.93;;;7.78;;
47053;SDS011;32811;52.382;5.270;2023-11-22T06:36:19;13.20;;;8.27;;
47053;SDS011;32811;52.382;5.270;2023-11-22T06:38:46;12.40;;;7.45;;
47053;SDS011;32811;52.382;5.270;2023-11-22T06:41:12;12.52;;;7.50;;
47053;SDS011;32811;52.382;5.270;2023-11-22T06:43:39;8.55;;;6.40;;
47053;SDS011;32811;52.382;5.270;2023-11-22T06:46:06;14.90;;;8.68;;
47053;SDS011;32811;52.382;5.270;2023-11-22T06:48:32;11.60;;;7.32;;
47053;SDS011;32811;52.382;5.270;2023-11-22T06:51:00;14.38;;;8.60;;
47053;SDS011;32811;52.382;5.270;2023-11-22T06:53:27;11.57;;;7.97;;
47053;SDS011;32811;52.382;5.270;2023-11-22T06:55:55;16.50;;;8.98;;
47053;SDS011;32811;52.382;5.270;2023-11-22T06:58:22;15.02;;;8.48;;
47053;SDS011;32811;52.382;5.270;2023-11-22T07:00:48;17.45;;;9.82;;
47053;SDS011;32811;52.382;5.270;2023-11-22T07:03:15;12.18;;;7.50;;
47053;SDS011;32811;52.382;5.270;2023-11-22T07:05:43;11.23;;;8.20;;
47053;SDS011;32811;52.382;5.270;2023-11-22T07:08:10;16.48;;;8.80;;
47053;SDS011;32811;52.382;5.270;2023-11-22T07:10:43;11.48;;;8.18;;
47053;SDS011;32811;52.382;5.270;2023-11-22T07:13:11;10.70;;;7.55;;
47053;SDS011;32811;52.382;5.270;2023-11-22T07:15:39;14.50;;;9.05;;
47053;SDS011;32811;52.382;5.270;2023-11-22T07:18:07;11.15;;;7.57;;
47053;SDS011;32811;52.382;5.270;2023-11-22T07:20:36;15.63;;;9.05;;
47053;SDS011;32811;52.382;5.270;2023-11-22T07:23:03;11.13;;;8.63;;
47053;SDS011;32811;52.382;5.270;2023-11-22T07:25:30;18.30;;;9.55;;
47053;SDS011;32811;52.382;5.270;2023-11-22T07:27:57;16.00;;;8.70;;
47053;SDS011;32811;52.382;5.270;2023-11-22T07:30:25;12.48;;;7.60;;
47053;SDS011;32811;52.382;5.270;2023-11-22T07:32:56;13.30;;;9.07;;
47053;SDS011;32811;52.382;5.270;2023-11-22T07:35:25;14.88;;;8.73;;
47053;SDS011;32811;52.382;5.270;2023-11-22T07:37:54;12.35;;;8.50;;
47053;SDS011;32811;52.382;5.270;2023-11-22T07:40:21;16.08;;;7.95;;
47053;SDS011;32811;52.382;5.270;2023-11-22T07:42:48;12.15;;;7.72;;
47053;SDS011;32811;52.382;5.270;2023-11-22T07:45:15;19.08;;;9.18;;
47053;SDS011;32811;52.382;5.270;2023-11-22T07:47:43;14.70;;;9.43;;
47053;SDS011;32811;52.382;5.270;2023-11-22T07:50:10;12.77;;;9.48;;
47053;SDS011;32811;52.382;5.270;2023-11-22T07:52:40;12.70;;;8.93;;
47053;SDS011;32811;52.382;5.270;2023-11-22T07:55:08;13.77;;;9.40;;
47053;SDS011;32811;52.382;5.270;2023-11-22T07:57:37;13.00;;;8.40;;
47053;SDS011;32811;52.382;5.270;2023-11-22T08:00:05;12.82;;;8.25;;
47053;SDS011;32811;52.382;5.270;2023-11-22T08:02:34;12.27;;;8.65;;
47053;SDS011;32811;52.382;5.270;2023-11-22T08:05:03;11.00;;;7.10;;
47053;SDS011;32811;52.382;5.270;2023-11-22T08:07:35;13.07;;;7.65;;
47053;SDS011;32811;52.382;5.270;2023-11-22T08:10:06;13.38;;;9.55;;
47053;SDS011;32811;52.382;5.270;2023-11-22T08:12:36;12.57;;;8.15;;
47053;SDS011;32811;52.382;5.270;2023-11-22T08:15:04;13.23;;;8.55;;
47053;SDS011;32811;52.382;5.270;2023-11-22T08:17:31;11.80;;;8.40;;
47053;SDS011;32811;52.382;5.270;2023-11-22T08:19:59;11.80;;;8.43;;
47053;SDS011;32811;52.382;5.270;2023-11-22T08:22:26;20.23;;;9.35;;
47053;SDS011;32811;52.382;5.270;2023-11-22T08:24:55;14.10;;;9.52;;
47053;SDS011;32811;52.382;5.270;2023-11-22T08:27:23;13.38;;;8.82;;
47053;SDS011;32811;52.382;5.270;2023-11-22T08:29:50;16.05;;;9.70;;
47053;SDS011;32811;52.382;5.270;2023-11-22T08:32:17;15.65;;;8.90;;
47053;SDS011;32811;52.382;5.270;2023-11-22T08:34:47;11.32;;;9.52;;
47053;SDS011;32811;52.382;5.270;2023-11-22T08:37:13;15.38;;;9.40;;
47053;SDS011;32811;52.382;5.270;2023-11-22T08:39:40;12.32;;;9.35;;
47053;SDS011;32811;52.382;5.270;2023-11-22T08:42:07;17.15;;;10.40;;
47053;SDS011;32811;52.382;5.270;2023-11-22T08:44:36;14.93;;;9.82;;
47053;SDS011;32811;52.382;5.270;2023-11-22T08:47:03;14.93;;;9.70;;
47053;SDS011;32811;52.382;5.270;2023-11-22T08:49:30;15.98;;;10.32;;
47053;SDS011;32811;52.382;5.270;2023-11-22T08:51:56;12.48;;;8.90;;
47053;SDS011;32811;52.382;5.270;2023-11-22T08:54:25;15.43;;;9.70;;
47053;SDS011;32811;52.382;5.270;2023-11-22T08:57:01;15.45;;;10.57;;
47053;SDS011;32811;52.382;5.270;2023-11-22T08:59:28;13.00;;;9.57;;
47053;SDS011;32811;52.382;5.270;2023-11-22T09:01:55;14.88;;;10.45;;
47053;SDS011;32811;52.382;5.270;2023-11-22T09:04:22;15.18;;;9.43;;
47053;SDS011;32811;52.382;5.270;2023-11-22T09:06:50;14.75;;;10.27;;
47053;SDS011;32811;52.382;5.270;2023-11-22T09:09:17;15.73;;;9.73;;
47053;SDS011;32811;52.382;5.270;2023-11-22T09:11:44;13.43;;;9.70;;
47053;SDS011;32811;52.382;5.270;2023-11-22T09:14:12;14.02;;;9.95;;
47053;SDS011;32811;52.382;5.270;2023-11-22T09:16:39;14.40;;;10.43;;
47053;SDS011;32811;52.382;5.270;2023-11-22T09:19:05;14.27;;;9.48;;
47053;SDS011;32811;52.382;5.270;2023-11-22T09:21:35;17.83;;;10.93;;
47053;SDS011;32811;52.382;5.270;2023-11-22T09:24:01;14.60;;;10.15;;
47053;SDS011;32811;52.382;5.270;2023-11-22T09:26:32;14.15;;;10.23;;
47053;SDS011;32811;52.382;5.270;2023-11-22T09:28:58;15.43;;;10.70;;
47053;SDS011;32811;52.382;5.270;2023-11-22T09:31:25;12.85;;;9.60;;
47053;SDS011;32811;52.382;5.270;2023-11-22T09:33:52;15.10;;;10.38;;
47053;SDS011;32811;52.382;5.270;2023-11-22T09:36:19;14.13;;;9.70;;
47053;SDS011;32811;52.382;5.270;2023-11-22T09:38:46;14.57;;;10.43;;
47053;SDS011;32811;52.382;5.270;2023-11-22T09:41:13;16.63;;;10.05;;
47053;SDS011;32811;52.382;5.270;2023-11-22T09:43:42;14.05;;;9.75;;
47053;SDS011;32811;52.382;5.270;2023-11-22T09:46:10;14.30;;;9.43;;
47053;SDS011;32811;52.382;5.270;2023-11-22T09:48:39;14.20;;;10.63;;
47053;SDS011;32811;52.382;5.270;2023-11-22T09:53:57;14.80;;;10.07;;
47053;SDS011;32811;52.382;5.270;2023-11-22T09:56:35;12.98;;;9.98;;
47053;SDS011;32811;52.382;5.270;2023-11-22T09:59:06;15.77;;;10.95;;
47053;SDS011;32811;52.382;5.270;2023-11-22T10:01:33;13.48;;;10.10;;
47053;SDS011;32811;52.382;5.270;2023-11-22T10:04:03;13.45;;;9.88;;
47053;SDS011;32811;52.382;5.270;2023-11-22T10:06:33;16.33;;;11.00;;
47053;SDS011;32811;52.382;5.270;2023-11-22T10:09:02;16.02;;;9.70;;
47053;SDS011;32811;52.382;5.270;2023-11-22T10:11:35;15.27;;;10.23;;
47053;SDS011;32811;52.382;5.270;2023-11-22T10:14:05;17.27;;;11.18;;
47053;SDS011;32811;52.382;5.270;2023-11-22T10:16:31;13.27;;;9.77;;
47053;SDS011;32811;52.382;5.270;2023-11-22T10:18:58;15.57;;;10.57;;
47053;SDS011;32811;52.382;5.270;2023-11-22T10:21:26;14.40;;;10.88;;
47053;SDS011;32811;52.382;5.270;2023-11-22T10:23:57;17.02;;;11.40;;
47053;SDS011;32811;52.382;5.270;2023-11-22T10:26:28;16.58;;;11.25;;
47053;SDS011;32811;52.382;5.270;2023-11-22T10:28:55;15.35;;;11.35;;
47053;SDS011;32811;52.382;5.270;2023-11-22T10:31:23;16.63;;;10.93;;
47053;SDS011;32811;52.382;5.270;2023-11-22T10:33:51;13.38;;;10.10;;
47053;SDS011;32811;52.382;5.270;2023-11-22T10:36:19;16.00;;;11.00;;
47053;SDS011;32811;52.382;5.270;2023-11-22T10:38:48;17.15;;;11.10;;
47053;SDS011;32811;52.382;5.270;2023-11-22T10:41:17;16.05;;;10.20;;
47053;SDS011;32811;52.382;5.270;2023-11-22T10:43:47;15.98;;;10.15;;
47053;SDS011;32811;52.382;5.270;2023-11-22T10:46:14;17.50;;;10.52;;
47053;SDS011;32811;52.382;5.270;2023-11-22T10:48:43;12.68;;;10.93;;
47053;SDS011;32811;52.382;5.270;2023-11-22T10:51:12;17.52;;;11.75;;
47053;SDS011;32811;52.382;5.270;2023-11-22T10:53:45;14.00;;;10.68;;
47053;SDS011;32811;52.382;5.270;2023-11-22T10:58:51;17.85;;;11.07;;
47053;SDS011;32811;52.382;5.270;2023-11-22T11:01:22;14.00;;;10.32;;
47053;SDS011;32811;52.382;5.270;2023-11-22T11:03:55;18.95;;;12.07;;
47053;SDS011;32811;52.382;5.270;2023-11-22T11:06:31;16.67;;;11.52;;
47053;SDS011;32811;52.382;5.270;2023-11-22T11:09:00;15.38;;;9.95;;
47053;SDS011;32811;52.382;5.270;2023-11-22T11:11:33;15.95;;;11.32;;
47053;SDS011;32811;52.382;5.270;2023-11-22T11:14:04;15.93;;;11.63;;
47053;SDS011;32811;52.382;5.270;2023-11-22T11:16:32;18.08;;;12.40;;
47053;SDS011;32811;52.382;5.270;2023-11-22T11:19:14;14.77;;;11.18;;
47053;SDS011;32811;52.382;5.270;2023-11-22T11:21:47;14.50;;;10.60;;
47053;SDS011;32811;52.382;5.270;2023-11-22T11:24:14;19.42;;;11.95;;
47053;SDS011;32811;52.382;5.270;2023-11-22T11:26:46;16.30;;;11.63;;
47053;SDS011;32811;52.382;5.270;2023-11-22T11:29:34;15.63;;;10.85;;
47053;SDS011;32811;52.382;5.270;2023-11-22T11:32:03;17.55;;;10.15;;
47053;SDS011;32811;52.382;5.270;2023-11-22T11:34:30;17.52;;;11.40;;
47053;SDS011;32811;52.382;5.270;2023-11-22T11:36:59;14.30;;;9.80;;
47053;SDS011;32811;52.382;5.270;2023-11-22T11:39:26;16.90;;;10.73;;
47053;SDS011;32811;52.382;5.270;2023-11-22T11:42:09;15.05;;;11.27;;
47053;SDS011;32811;52.382;5.270;2023-11-22T11:47:28;15.00;;;10.88;;
47053;SDS011;32811;52.382;5.270;2023-11-22T11:49:55;13.98;;;10.65;;
47053;SDS011;32811;52.382;5.270;2023-11-22T11:52:22;14.85;;;10.70;;
47053;SDS011;32811;52.382;5.270;2023-11-22T11:54:51;14.23;;;10.80;;
47053;SDS011;32811;52.382;5.270;2023-11-22T12:16:14;17.13;;;10.80;;
47053;SDS011;32811;52.382;5.270;2023-11-22T12:18:44;11.98;;;9.77;;
47053;SDS011;32811;52.382;5.270;2023-11-22T12:21:12;16.77;;;11.18;;
47053;SDS011;32811;52.382;5.270;2023-11-22T12:23:40;16.00;;;11.20;;
47053;SDS011;32811;52.382;5.270;2023-11-22T12:26:11;15.57;;;9.55;;
47053;SDS011;32811;52.382;5.270;2023-11-22T12:28:39;14.85;;;11.27;;
47053;SDS011;32811;52.382;5.270;2023-11-22T12:31:18;17.80;;;10.43;;
47053;SDS011;32811;52.382;5.270;2023-11-22T12:33:45;12.80;;;9.88;;
47053;SDS011;32811;52.382;5.270;2023-11-22T12:36:17;19.30;;;11.10;;
47053;SDS011;32811;52.382;5.270;2023-11-22T12:38:44;16.55;;;11.23;;
47053;SDS011;32811;52.382;5.270;2023-11-22T12:41:11;13.27;;;9.02;;
47053;SDS011;32811;52.382;5.270;2023-11-22T12:43:41;12.55;;;9.43;;
47053;SDS011;32811;52.382;5.270;2023-11-22T12:48:44;23.42;;;10.13;;
47053;SDS011;32811;52.382;5.270;2023-11-22T12:51:15;12.27;;;9.85;;
47053;SDS011;32811;52.382;5.270;2023-11-22T12:53:46;13.73;;;9.52;;
47053;SDS011;32811;52.382;5.270;2023-11-22T12:56:13;19.58;;;10.20;;
47053;SDS011;32811;52.382;5.270;2023-11-22T12:58:40;12.27;;;10.05;;
47053;SDS011;32811;52.382;5.270;2023-11-22T13:01:07;15.85;;;9.68;;
47053;SDS011;32811;52.382;5.270;2023-11-22T13:03:34;14.27;;;10.48;;
47053;SDS011;32811;52.382;5.270;2023-11-22T13:06:00;11.70;;;9.55;;
47053;SDS011;32811;52.382;5.270;2023-11-22T13:08:27;17.13;;;10.73;;
47053;SDS011;32811;52.382;5.270;2023-11-22T13:10:58;14.90;;;10.27;;
47053;SDS011;32811;52.382;5.270;2023-11-22T13:13:25;14.63;;;9.65;;
47053;SDS011;32811;52.382;5.270;2023-11-22T13:15:54;12.15;;;9.45;;
47053;SDS011;32811;52.382;5.270;2023-11-22T13:18:21;12.70;;;9.77;;
47053;SDS011;32811;52.382;5.270;2023-11-22T13:20:48;11.75;;;9.15;;
47053;SDS011;32811;52.382;5.270;2023-11-22T13:23:16;13.10;;;9.82;;
47053;SDS011;32811;52.382;5.270;2023-11-22T13:25:44;12.40;;;9.70;;
47053;SDS011;32811;52.382;5.270;2023-11-22T13:28:12;11.75;;;9.25;;
47053;SDS011;32811;52.382;5.270;2023-11-22T13:30:43;12.68;;;10.10;;
47053;SDS011;32811;52.382;5.270;2023-11-22T13:33:09;14.50;;;10.05;;
47053;SDS011;32811;52.382;5.270;2023-11-22T13:35:38;12.52;;;9.20;;
47053;SDS011;32811;52.382;5.270;2023-11-22T13:38:05;17.05;;;10.75;;
47053;SDS011;32811;52.382;5.270;2023-11-22T13:40:37;12.95;;;10.18;;
47053;SDS011;32811;52.382;5.270;2023-11-22T13:43:06;11.32;;;10.18;;
47053;SDS011;32811;52.382;5.270;2023-11-22T13:45:36;16.02;;;9.85;;
47053;SDS011;32811;52.382;5.270;2023-11-22T13:48:06;14.95;;;10.63;;
47053;SDS011;32811;52.382;5.270;2023-11-22T13:50:36;12.73;;;10.43;;
47053;SDS011;32811;52.382;5.270;2023-11-22T13:53:03;14.32;;;10.20;;
47053;SDS011;32811;52.382;5.270;2023-11-22T13:55:30;12.77;;;10.48;;
47053;SDS011;32811;52.382;5.270;2023-11-22T13:57:58;13.82;;;10.73;;
47053;SDS011;32811;52.382;5.270;2023-11-22T14:00:29;15.50;;;11.05;;
47053;SDS011;32811;52.382;5.270;2023-11-22T14:03:01;15.98;;;10.80;;
47053;SDS011;32811;52.382;5.270;2023-11-22T14:05:35;14.10;;;9.73;;
47053;SDS011;32811;52.382;5.270;2023-11-22T14:08:06;11.48;;;9.45;;
47053;SDS011;32811;52.382;5.270;2023-11-22T14:10:33;12.90;;;10.07;;
47053;SDS011;32811;52.382;5.270;2023-11-22T14:13:00;15.77;;;10.35;;
47053;SDS011;32811;52.382;5.270;2023-11-22T14:15:28;14.05;;;10.60;;
47053;SDS011;32811;52.382;5.270;2023-11-22T14:17:55;18.35;;;10.32;;
47053;SDS011;32811;52.382;5.270;2023-11-22T14:20:22;13.45;;;10.10;;
47053;SDS011;32811;52.382;5.270;2023-11-22T14:22:50;13.65;;;10.32;;
47053;SDS011;32811;52.382;5.270;2023-11-22T14:25:18;19.85;;;10.90;;
47053;SDS011;32811;52.382;5.270;2023-11-22T14:27:46;13.10;;;10.18;;
47053;SDS011;32811;52.382;5.270;2023-11-22T14:30:19;17.08;;;10.57;;
47053;SDS011;32811;52.382;5.270;2023-11-22T14:32:47;13.60;;;10.75;;
47053;SDS011;32811;52.382;5.270;2023-11-22T14:35:14;16.65;;;10.85;;
47053;SDS011;32811;52.382;5.270;2023-11-22T14:37:42;13.38;;;10.75;;
47053;SDS011;32811;52.382;5.270;2023-11-22T14:40:09;17.15;;;11.93;;
47053;SDS011;32811;52.382;5.270;2023-11-22T14:42:47;16.55;;;11.38;;
47053;SDS011;32811;52.382;5.270;2023-11-22T14:45:18;15.63;;;10.88;;
47053;SDS011;32811;52.382;5.270;2023-11-22T14:47:46;18.10;;;12.65;;
47053;SDS011;32811;52.382;5.270;2023-11-22T14:50:13;16.40;;;10.90;;
47053;SDS011;32811;52.382;5.270;2023-11-22T14:52:42;17.52;;;11.80;;
47053;SDS011;32811;52.382;5.270;2023-11-22T14:55:10;17.45;;;12.40;;
47053;SDS011;32811;52.382;5.270;2023-11-22T14:57:38;15.40;;;11.05;;
47053;SDS011;32811;52.382;5.270;2023-11-22T15:00:05;15.82;;;11.60;;
47053;SDS011;32811;52.382;5.270;2023-11-22T15:02:36;16.70;;;12.40;;
47053;SDS011;32811;52.382;5.270;2023-11-22T15:05:03;15.82;;;11.07;;
47053;SDS011;32811;52.382;5.270;2023-11-22T15:07:31;19.17;;;12.95;;
47053;SDS011;32811;52.382;5.270;2023-11-22T15:09:58;20.33;;;11.45;;